createdAt,value
2018-09-14T00:01:43.100Z,16.60
2018-09-14T00:04:11.680Z,16.60
2018-09-14T00:06:40.204Z,16.60
2018-09-14T00:09:11.736Z,16.60
2018-09-14T00:11:41.109Z,16.70
2018-09-14T00:14:09.956Z,16.70
2018-09-14T00:16:39.176Z,16.70
2018-09-14T00:19:07.734Z,16.70
2018-09-14T00:21:36.189Z,16.70
2018-09-14T00:24:12.110Z,16.70
2018-09-14T00:26:40.670Z,16.70
2018-09-14T00:29:09.445Z,16.60
2018-09-14T00:31:37.791Z,16.50
2018-09-14T00:34:06.443Z,16.50
2018-09-14T00:36:34.939Z,16.60
2018-09-14T00:39:03.849Z,16.60
2018-09-14T00:41:32.675Z,16.60
2018-09-14T00:44:01.204Z,16.60
2018-09-14T00:46:29.782Z,16.50
2018-09-14T00:48:58.069Z,16.60
2018-09-14T00:51:26.688Z,16.60
2018-09-14T00:53:56.669Z,16.60
2018-09-14T00:56:25.222Z,16.70
2018-09-14T00:58:53.884Z,16.70
2018-09-14T01:01:22.312Z,16.80
2018-09-14T01:03:50.977Z,16.80
2018-09-14T01:06:19.500Z,16.70
2018-09-14T01:08:48.039Z,16.60
2018-09-14T01:11:17.686Z,16.60
2018-09-14T01:13:46.197Z,16.60
2018-09-14T01:16:14.985Z,16.50
2018-09-14T01:18:43.980Z,16.50
2018-09-14T01:21:12.562Z,16.50
2018-09-14T01:23:40.824Z,16.40
2018-09-14T01:26:09.765Z,16.40
2018-09-14T01:28:37.995Z,16.50
2018-09-14T01:31:06.892Z,16.60
2018-09-14T01:33:35.400Z,16.60
2018-09-14T01:36:11.012Z,16.60
2018-09-14T01:38:39.864Z,16.60
2018-09-14T01:41:09.140Z,16.60
2018-09-14T01:43:37.582Z,16.50
2018-09-14T01:46:06.253Z,16.50
2018-09-14T01:48:34.502Z,16.40
2018-09-14T01:51:03.038Z,16.40
2018-09-14T01:53:31.926Z,16.50
2018-09-14T01:56:00.675Z,16.50
2018-09-14T01:58:29.549Z,16.50
2018-09-14T02:00:58.354Z,16.50
2018-09-14T02:03:27.112Z,16.40
2018-09-14T02:05:55.334Z,16.30
2018-09-14T02:08:24.760Z,16.30
2018-09-14T02:10:53.179Z,16.30
2018-09-14T02:13:21.784Z,16.30
2018-09-14T02:15:50.747Z,16.30
2018-09-14T02:18:19.360Z,16.30
2018-09-14T02:20:47.603Z,16.40
2018-09-14T02:23:16.595Z,16.40
2018-09-14T02:25:45.149Z,16.40
2018-09-14T02:28:13.397Z,16.40
2018-09-14T02:30:42.587Z,16.50
2018-09-14T02:33:11.104Z,16.40
2018-09-14T02:35:39.949Z,16.40
2018-09-14T02:38:08.476Z,16.40
2018-09-14T02:40:36.825Z,16.40
2018-09-14T02:43:05.379Z,16.40
2018-09-14T02:45:34.332Z,16.40
2018-09-14T02:48:03.302Z,16.30
2018-09-14T02:50:32.887Z,16.30
2018-09-14T02:53:02.044Z,16.30
2018-09-14T02:55:30.731Z,16.30
2018-09-14T02:57:59.809Z,16.30
2018-09-14T03:00:28.055Z,16.40
2018-09-14T03:02:57.103Z,16.40
2018-09-14T03:05:26.365Z,16.40
2018-09-14T03:07:54.644Z,16.40
2018-09-14T03:10:23.565Z,16.50
2018-09-14T03:12:52.488Z,16.40
2018-09-14T03:15:20.826Z,16.50
2018-09-14T03:17:49.946Z,16.50
2018-09-14T03:20:18.207Z,16.50
2018-09-14T03:22:47.080Z,16.50
2018-09-14T03:25:15.347Z,16.50
2018-09-14T03:27:44.089Z,16.50
2018-09-14T03:30:12.929Z,16.50
2018-09-14T03:32:41.209Z,16.40
2018-09-14T03:35:10.100Z,16.40
2018-09-14T03:37:38.668Z,16.40
2018-09-14T03:40:07.582Z,16.40
2018-09-14T03:42:36.963Z,16.50
2018-09-14T03:45:06.334Z,16.50
2018-09-14T03:47:34.922Z,16.50
2018-09-14T03:50:04.341Z,16.60
2018-09-14T03:52:32.883Z,16.60
2018-09-14T03:55:02.076Z,16.60
2018-09-14T03:57:31.852Z,16.50
2018-09-14T04:00:00.768Z,16.50
2018-09-14T04:02:29.265Z,16.50
2018-09-14T04:04:57.531Z,16.40
2018-09-14T04:07:26.096Z,16.40
2018-09-14T04:09:54.640Z,16.40
2018-09-14T04:12:23.517Z,16.50
2018-09-14T04:14:52.031Z,16.50
2018-09-14T04:17:20.298Z,16.50
2018-09-14T04:19:48.788Z,16.60
2018-09-14T04:22:17.864Z,16.50
2018-09-14T04:24:46.109Z,16.50
2018-09-14T04:27:15.568Z,16.40
2018-09-14T04:29:44.157Z,16.50
2018-09-14T04:32:12.412Z,16.50
2018-09-14T04:34:40.748Z,16.50
2018-09-14T04:37:09.360Z,16.50
2018-09-14T04:39:38.239Z,16.50
2018-09-14T04:42:07.514Z,16.40
2018-09-14T04:44:35.752Z,16.50
2018-09-14T04:47:05.408Z,16.50
2018-09-14T04:49:33.953Z,16.40
2018-09-14T04:52:05.083Z,16.50
2018-09-14T04:54:33.320Z,16.50
2018-09-14T04:57:02.028Z,16.50
2018-09-14T04:59:30.384Z,16.60
2018-09-14T05:04:27.109Z,16.60
2018-09-14T05:06:55.383Z,16.60
2018-09-14T05:09:24.826Z,16.50
2018-09-14T05:11:53.354Z,16.50
2018-09-14T05:14:21.684Z,16.60
2018-09-14T05:16:49.940Z,16.60
2018-09-14T05:19:18.498Z,16.60
2018-09-14T05:21:46.881Z,16.60
2018-09-14T05:24:15.130Z,16.60
2018-09-14T05:26:44.304Z,16.60
2018-09-14T05:29:15.377Z,16.60
2018-09-14T05:31:43.918Z,16.70
2018-09-14T05:34:12.465Z,16.60
2018-09-14T05:36:41.276Z,16.60
2018-09-14T05:39:10.499Z,16.60
2018-09-14T05:41:39.744Z,16.20
2018-09-14T05:44:08.839Z,16.60
2018-09-14T05:46:37.576Z,16.60
2018-09-14T05:49:06.780Z,16.60
2018-09-14T05:51:35.432Z,16.70
2018-09-14T05:54:04.810Z,16.70
2018-09-14T05:56:34.028Z,16.70
2018-09-14T05:59:02.397Z,16.90
2018-09-14T06:01:31.951Z,16.70
2018-09-14T06:04:00.329Z,16.70
2018-09-14T06:06:35.381Z,16.60
2018-09-14T06:09:07.360Z,16.60
2018-09-14T06:11:36.068Z,16.60
2018-09-14T06:14:05.946Z,16.50
2018-09-14T06:16:35.757Z,16.60
2018-09-14T06:19:04.917Z,16.60
2018-09-14T06:21:33.915Z,16.80
2018-09-14T06:24:03.209Z,16.70
2018-09-14T06:26:32.680Z,16.70
2018-09-14T06:29:01.401Z,16.80
2018-09-14T06:31:30.092Z,17.00
2018-09-14T06:33:59.163Z,17.10
2018-09-14T06:36:28.584Z,17.10
2018-09-14T06:38:57.180Z,17.30
2018-09-14T06:41:25.808Z,17.40
2018-09-14T06:43:54.810Z,17.40
2018-09-14T06:46:23.609Z,17.40
2018-09-14T06:48:51.912Z,17.50
2018-09-14T06:51:21.213Z,17.60
2018-09-14T06:53:49.485Z,17.70
2018-09-14T06:56:18.194Z,17.90
2018-09-14T06:58:46.734Z,17.90
2018-09-14T07:01:15.392Z,18.10
2018-09-14T07:03:44.003Z,18.10
2018-09-14T07:06:12.303Z,18.30
2018-09-14T07:08:40.993Z,18.40
2018-09-14T07:11:09.510Z,18.60
2018-09-14T07:13:37.708Z,18.20
2018-09-14T07:16:05.962Z,18.20
2018-09-14T07:18:34.339Z,18.00
2018-09-14T07:21:03.028Z,17.90
2018-09-14T07:23:31.527Z,17.90
2018-09-14T07:26:00.162Z,17.80
2018-09-14T07:28:28.503Z,17.70
2018-09-14T07:30:56.946Z,17.70
2018-09-14T07:33:25.208Z,17.70
2018-09-14T07:35:53.928Z,17.60
2018-09-14T07:38:22.265Z,17.60
2018-09-14T07:40:50.789Z,17.60
2018-09-14T07:43:19.024Z,17.50
2018-09-14T07:45:47.967Z,17.50
2018-09-14T07:48:16.753Z,17.50
2018-09-14T07:50:45.019Z,17.50
2018-09-14T07:53:13.350Z,17.60
2018-09-14T07:55:42.342Z,17.60
2018-09-14T07:58:10.876Z,17.80
2018-09-14T08:00:39.552Z,18.00
2018-09-14T08:03:08.376Z,18.20
2018-09-14T08:05:36.649Z,18.50
2018-09-14T08:08:04.969Z,18.60
2018-09-14T08:10:33.344Z,18.70
2018-09-14T08:13:01.932Z,18.80
2018-09-14T08:15:30.633Z,18.80
2018-09-14T08:17:58.928Z,18.90
2018-09-14T08:20:27.752Z,18.90
2018-09-14T08:25:37.058Z,18.90
2018-09-14T08:28:05.560Z,19.20
2018-09-14T08:30:33.999Z,18.70
2018-09-14T08:33:02.723Z,18.60
2018-09-14T08:35:32.167Z,18.50
2018-09-14T08:38:00.767Z,18.60
2018-09-14T08:40:29.414Z,18.50
2018-09-14T08:42:58.696Z,18.40
2018-09-14T08:45:27.135Z,18.30
2018-09-14T08:47:55.382Z,18.30
2018-09-14T08:50:24.707Z,18.30
2018-09-14T08:52:53.785Z,18.30
2018-09-14T08:55:22.324Z,18.30
2018-09-14T08:57:51.583Z,18.30
2018-09-14T09:00:25.116Z,18.60
2018-09-14T09:02:54.615Z,18.70
2018-09-14T09:05:24.134Z,18.90
2018-09-14T09:07:53.041Z,19.10
2018-09-14T09:10:21.829Z,19.20
2018-09-14T09:12:50.780Z,19.30
2018-09-14T09:15:19.426Z,19.50
2018-09-14T09:17:48.339Z,19.70
2018-09-14T09:20:17.191Z,19.90
2018-09-14T09:22:45.768Z,20.30
2018-09-14T09:25:14.277Z,20.50
2018-09-14T09:27:42.532Z,20.80
2018-09-14T09:30:10.762Z,21.20
2018-09-14T09:32:39.453Z,21.50
2018-09-14T09:35:09.229Z,22.10
2018-09-14T09:37:37.567Z,22.10
2018-09-14T09:40:06.717Z,22.70
2018-09-14T09:42:35.236Z,22.80
2018-09-14T09:45:04.127Z,23.00
2018-09-14T09:47:32.901Z,22.80
2018-09-14T09:50:01.759Z,22.80
2018-09-14T09:52:30.282Z,22.70
2018-09-14T09:54:58.851Z,22.80
2018-09-14T09:57:27.400Z,23.00
2018-09-14T09:59:55.685Z,23.00
2018-09-14T10:02:28.155Z,23.00
2018-09-14T10:05:01.870Z,22.80
2018-09-14T10:07:30.700Z,22.80
2018-09-14T10:09:59.176Z,22.80
2018-09-14T10:12:27.970Z,22.60
2018-09-14T10:14:56.300Z,22.40
2018-09-14T10:17:25.162Z,22.40
2018-09-14T10:19:53.411Z,22.30
2018-09-14T10:22:23.662Z,22.20
2018-09-14T10:24:53.859Z,21.90
2018-09-14T10:27:23.692Z,21.60
2018-09-14T10:29:53.579Z,21.40
2018-09-14T10:32:23.641Z,20.90
2018-09-14T10:34:53.552Z,20.20
2018-09-14T10:37:23.286Z,20.20
2018-09-14T10:39:53.757Z,19.90
2018-09-14T10:42:26.912Z,19.90
2018-09-14T10:44:57.705Z,19.90
2018-09-14T10:47:27.656Z,19.90
2018-09-14T10:49:55.980Z,20.20
2018-09-14T10:52:25.857Z,20.20
2018-09-14T10:54:54.689Z,20.20
2018-09-14T10:57:23.441Z,20.30
2018-09-14T10:59:52.262Z,20.50
2018-09-14T11:02:20.452Z,20.80
2018-09-14T11:04:49.897Z,20.90
2018-09-14T11:07:18.534Z,20.80
2018-09-14T11:09:47.239Z,21.10
2018-09-14T11:12:15.548Z,21.30
2018-09-14T11:14:45.335Z,21.40
2018-09-14T11:17:14.797Z,21.50
2018-09-14T11:19:45.014Z,21.40
2018-09-14T11:22:16.523Z,21.50
2018-09-14T11:24:47.280Z,21.60
2018-09-14T11:27:18.835Z,21.70
2018-09-14T11:29:47.077Z,21.80
2018-09-14T11:32:17.573Z,22.10
2018-09-14T11:34:46.211Z,22.40
2018-09-14T11:37:14.648Z,22.30
2018-09-14T11:39:42.927Z,22.50
2018-09-14T11:42:11.604Z,22.50
2018-09-14T11:44:40.399Z,22.40
2018-09-14T11:47:09.138Z,22.20
2018-09-14T11:49:37.389Z,22.10
2018-09-14T11:54:34.309Z,22.10
2018-09-14T11:57:02.931Z,22.10
2018-09-14T11:59:31.243Z,22.10
2018-09-14T12:01:59.844Z,22.30
2018-09-14T12:04:28.556Z,22.60
2018-09-14T12:06:56.779Z,22.90
2018-09-14T12:09:25.411Z,22.90
2018-09-14T12:11:53.648Z,22.80
2018-09-14T12:14:21.926Z,22.80
2018-09-14T12:16:51.038Z,23.10
2018-09-14T12:19:19.370Z,23.00
2018-09-14T12:21:47.661Z,23.10
2018-09-14T12:24:16.236Z,23.00
2018-09-14T12:26:44.717Z,23.20
2018-09-14T12:29:13.313Z,23.40
2018-09-14T12:31:41.559Z,23.50
2018-09-14T12:34:09.856Z,23.70
2018-09-14T12:36:38.333Z,23.60
2018-09-14T12:39:09.026Z,23.30
2018-09-14T12:41:37.449Z,23.30
2018-09-14T12:44:06.136Z,23.50
2018-09-14T12:46:34.412Z,23.60
2018-09-14T12:49:02.951Z,23.60
2018-09-14T12:51:32.104Z,23.50
2018-09-14T12:54:01.036Z,23.60
2018-09-14T12:56:29.820Z,23.80
2018-09-14T12:58:58.060Z,24.10
2018-09-14T13:01:26.599Z,24.30
2018-09-14T13:03:55.253Z,24.40
2018-09-14T13:06:23.560Z,24.10
2018-09-14T13:08:52.320Z,23.80
2018-09-14T13:11:21.078Z,24.00
2018-09-14T13:13:50.451Z,24.60
2018-09-14T13:16:18.900Z,25.20
2018-09-14T13:18:47.790Z,25.70
2018-09-14T13:21:16.097Z,26.50
2018-09-14T13:23:44.853Z,26.50
2018-09-14T13:26:13.148Z,27.00
2018-09-14T13:28:42.621Z,28.50
2018-09-14T13:31:10.916Z,27.70
2018-09-14T13:33:39.433Z,28.50
2018-09-14T13:36:08.100Z,29.10
2018-09-14T13:38:36.364Z,29.10
2018-09-14T13:41:04.597Z,28.80
2018-09-14T13:43:32.834Z,29.50
2018-09-14T13:46:01.049Z,30.20
2018-09-14T13:48:29.956Z,29.80
2018-09-14T13:50:58.480Z,29.30
2018-09-14T13:53:26.768Z,30.30
2018-09-14T13:55:55.247Z,31.70
2018-09-14T13:58:23.503Z,29.70
2018-09-14T14:00:51.905Z,29.70
2018-09-14T14:03:22.180Z,28.90
2018-09-14T14:05:50.694Z,27.10
2018-09-14T14:08:19.325Z,27.10
2018-09-14T14:10:47.927Z,26.90
2018-09-14T14:13:16.271Z,26.40
2018-09-14T14:15:44.853Z,25.80
2018-09-14T14:18:13.165Z,25.80
2018-09-14T14:20:41.781Z,25.80
2018-09-14T14:23:10.037Z,25.90
2018-09-14T14:25:38.584Z,25.60
2018-09-14T14:28:07.297Z,24.40
2018-09-14T14:30:36.722Z,24.30
2018-09-14T14:33:05.632Z,24.10
2018-09-14T14:35:34.296Z,23.80
2018-09-14T14:38:02.512Z,23.50
2018-09-14T14:40:30.892Z,23.20
2018-09-14T14:43:00.869Z,23.50
2018-09-14T14:45:30.003Z,23.70
2018-09-14T14:47:58.744Z,23.90
2018-09-14T14:50:27.229Z,24.40
2018-09-14T14:55:24.201Z,24.80
2018-09-14T14:57:52.769Z,24.60
2018-09-14T15:00:21.889Z,24.20
2018-09-14T15:02:50.253Z,24.10
2018-09-14T15:05:19.093Z,23.90
2018-09-14T15:10:16.428Z,23.50
2018-09-14T15:12:45.335Z,24.20
2018-09-14T15:15:13.610Z,25.10
2018-09-14T15:17:43.999Z,25.80
2018-09-14T15:20:12.362Z,26.00
2018-09-14T15:22:40.888Z,26.10
2018-09-14T15:25:09.400Z,26.10
2018-09-14T15:27:38.271Z,25.40
2018-09-14T15:30:06.827Z,25.40
2018-09-14T15:32:35.101Z,24.40
2018-09-14T15:35:03.436Z,24.40
2018-09-14T15:37:32.085Z,23.90
2018-09-14T15:40:00.389Z,23.60
2018-09-14T15:42:29.080Z,23.60
2018-09-14T15:44:57.509Z,23.60
2018-09-14T15:47:26.140Z,24.30
2018-09-14T15:49:54.961Z,25.10
2018-09-14T15:52:23.243Z,24.50
2018-09-14T15:54:52.156Z,24.50
2018-09-14T15:57:20.449Z,24.40
2018-09-14T15:59:48.972Z,23.50
2018-09-14T16:02:18.092Z,23.90
2018-09-14T16:04:46.658Z,23.00
2018-09-14T16:07:15.244Z,23.00
2018-09-14T16:09:45.808Z,23.00
2018-09-14T16:12:15.263Z,23.30
2018-09-14T16:14:45.136Z,23.70
2018-09-14T16:17:16.189Z,23.70
2018-09-14T16:19:47.294Z,23.30
2018-09-14T16:22:18.925Z,23.20
2018-09-14T16:24:49.667Z,22.90
2018-09-14T16:27:19.859Z,22.50
2018-09-14T16:29:50.081Z,22.40
2018-09-14T16:32:18.640Z,22.10
2018-09-14T16:34:47.399Z,21.70
2018-09-14T16:37:17.085Z,21.70
2018-09-14T16:39:46.358Z,21.70
2018-09-14T16:42:15.293Z,21.50
2018-09-14T16:44:44.249Z,21.50
2018-09-14T16:47:14.343Z,21.50
2018-09-14T16:49:42.989Z,21.60
2018-09-14T16:52:12.556Z,21.40
2018-09-14T16:54:41.785Z,21.30
2018-09-14T16:57:10.460Z,21.30
2018-09-14T16:59:39.416Z,20.90
2018-09-14T17:02:08.095Z,21.00
2018-09-14T17:04:39.145Z,20.90
2018-09-14T17:07:07.964Z,20.80
2018-09-14T17:09:37.310Z,20.80
2018-09-14T17:12:06.181Z,20.80
2018-09-14T17:14:34.883Z,20.80
2018-09-14T17:17:03.667Z,20.80
2018-09-14T17:19:32.145Z,20.80
2018-09-14T17:22:01.384Z,20.80
2018-09-14T17:24:31.684Z,20.80
2018-09-14T17:27:00.331Z,20.70
2018-09-14T17:29:28.615Z,20.70
2018-09-14T17:31:57.313Z,20.60
2018-09-14T17:34:25.544Z,20.60
2018-09-14T17:36:53.924Z,20.50
2018-09-14T17:39:23.063Z,20.70
2018-09-14T17:41:51.693Z,20.40
2018-09-14T17:44:20.196Z,20.30
2018-09-14T17:46:48.495Z,20.20
2018-09-14T17:49:16.686Z,20.20
2018-09-14T17:51:45.712Z,20.20
2018-09-14T17:54:14.501Z,20.10
2018-09-14T17:56:43.986Z,20.00
2018-09-14T17:59:12.278Z,20.00
2018-09-14T18:01:41.004Z,20.00
2018-09-14T18:04:10.056Z,20.00
2018-09-14T18:06:38.365Z,20.00
2018-09-14T18:09:10.571Z,20.00
2018-09-14T18:11:39.387Z,20.00
2018-09-14T18:14:08.220Z,20.00
2018-09-14T18:16:36.764Z,20.10
2018-09-14T18:19:05.326Z,20.10
2018-09-14T18:21:33.670Z,20.20
2018-09-14T18:24:12.759Z,20.10
2018-09-14T18:26:41.271Z,20.10
2018-09-14T18:29:10.508Z,19.90
2018-09-14T18:36:47.498Z,19.70
2018-09-14T18:39:16.389Z,19.70
2018-09-14T18:41:45.233Z,19.60
2018-09-14T18:44:19.159Z,19.60
2018-09-14T18:46:48.161Z,19.50
2018-09-14T18:49:16.439Z,19.50
2018-09-14T18:51:44.792Z,19.50
2018-09-14T18:54:13.857Z,19.40
2018-09-14T18:56:46.032Z,19.40
2018-09-14T18:59:14.855Z,19.50
2018-09-14T19:01:43.856Z,19.40
2018-09-14T19:04:12.219Z,19.40
2018-09-14T19:06:40.780Z,19.30
2018-09-14T19:09:10.816Z,19.30
2018-09-14T19:11:39.270Z,19.30
2018-09-14T19:14:07.590Z,19.30
2018-09-14T19:16:36.339Z,19.40
2018-09-14T19:19:09.269Z,19.40
2018-09-14T19:21:38.157Z,19.50
2018-09-14T19:24:06.672Z,19.50
2018-09-14T19:26:35.953Z,19.40
2018-09-14T19:29:04.171Z,19.40
2018-09-14T19:31:35.109Z,19.30
2018-09-14T19:34:03.569Z,19.30
2018-09-14T19:36:31.867Z,19.30
2018-09-14T19:39:00.228Z,19.20
2018-09-14T19:41:28.704Z,19.20
2018-09-14T19:43:56.938Z,19.20
2018-09-14T19:46:25.991Z,19.20
2018-09-14T19:48:54.443Z,19.20
2018-09-14T19:51:23.330Z,19.20
2018-09-14T19:53:51.883Z,19.20
2018-09-14T19:56:20.674Z,19.10
2018-09-14T19:58:49.109Z,19.10
2018-09-14T20:01:17.633Z,19.40
2018-09-14T20:03:45.891Z,19.20
2018-09-14T20:06:14.907Z,19.10
2018-09-14T20:08:43.193Z,19.20
2018-09-14T20:13:41.077Z,19.20
2018-09-14T20:16:09.355Z,19.20
2018-09-14T20:18:37.836Z,19.20
2018-09-14T20:21:06.386Z,19.20
2018-09-14T20:23:34.792Z,19.10
2018-09-14T20:26:03.008Z,19.10
2018-09-14T20:28:31.785Z,19.10
2018-09-14T20:31:00.447Z,19.10
2018-09-14T20:33:29.279Z,19.10
2018-09-14T20:35:57.606Z,19.10
2018-09-14T20:38:26.556Z,19.10
2018-09-14T20:40:54.827Z,19.10
2018-09-14T20:43:24.144Z,19.10
2018-09-14T20:45:54.057Z,19.10
2018-09-14T20:48:22.759Z,19.00
2018-09-14T20:50:51.944Z,19.00
2018-09-14T20:53:21.479Z,19.00
2018-09-14T20:55:51.250Z,19.00
2018-09-14T20:58:21.309Z,19.00
2018-09-14T21:00:50.956Z,18.90
2018-09-14T21:03:20.419Z,19.00
2018-09-14T21:05:49.003Z,18.90
2018-09-14T21:08:17.400Z,19.00
2018-09-14T21:10:46.804Z,19.00
2018-09-14T21:13:15.106Z,18.90
2018-09-14T21:15:43.372Z,18.90
2018-09-14T21:18:11.835Z,18.90
2018-09-14T21:20:40.099Z,18.90
2018-09-14T21:23:08.407Z,19.00
2018-09-14T21:25:36.866Z,18.90
2018-09-14T21:28:05.077Z,18.80
2018-09-14T21:30:33.863Z,18.90
2018-09-14T21:33:02.622Z,18.80
2018-09-14T21:35:31.042Z,18.80
2018-09-14T21:37:59.713Z,18.80
2018-09-14T21:40:28.109Z,19.20
2018-09-14T21:42:56.913Z,18.70
2018-09-14T21:45:28.078Z,18.70
2018-09-14T21:47:56.287Z,18.70
2018-09-14T21:50:24.685Z,18.70
2018-09-14T21:52:53.196Z,18.60
2018-09-14T21:55:21.491Z,18.70
2018-09-14T21:57:49.717Z,18.60
2018-09-14T22:00:23.477Z,18.60
2018-09-14T22:02:51.972Z,18.60
2018-09-14T22:05:20.194Z,18.70
2018-09-14T22:07:48.541Z,18.70
2018-09-14T22:10:17.125Z,18.70
2018-09-14T22:12:45.638Z,18.70
2018-09-14T22:15:14.027Z,18.70
2018-09-14T22:17:43.073Z,18.80
2018-09-14T22:20:11.307Z,18.60
2018-09-14T22:22:39.845Z,18.60
2018-09-14T22:25:08.612Z,18.60
2018-09-14T22:27:37.261Z,18.60
2018-09-14T22:30:07.048Z,18.60
2018-09-14T22:32:35.393Z,18.60
2018-09-14T22:35:03.623Z,18.60
2018-09-14T22:37:31.825Z,18.60
2018-09-14T22:40:00.633Z,18.60
2018-09-14T22:42:28.860Z,18.80
2018-09-14T22:44:57.070Z,18.50
2018-09-14T22:47:25.684Z,18.50
2018-09-14T22:49:53.888Z,18.50
2018-09-14T22:52:22.154Z,18.60
2018-09-14T22:54:50.726Z,18.50
2018-09-14T22:57:19.317Z,18.60
2018-09-14T22:59:47.854Z,18.50
2018-09-14T23:02:16.158Z,18.40
2018-09-14T23:04:44.625Z,18.30
2018-09-14T23:07:12.921Z,18.30
2018-09-14T23:09:41.550Z,18.30
2018-09-14T23:12:09.799Z,18.30
2018-09-14T23:14:38.333Z,18.30
2018-09-14T23:17:08.431Z,18.30
2018-09-14T23:19:37.777Z,18.30
2018-09-14T23:22:06.349Z,18.30
2018-09-14T23:24:34.603Z,18.30
2018-09-14T23:27:03.066Z,18.30
2018-09-14T23:29:32.491Z,18.40
2018-09-14T23:32:00.981Z,18.40
2018-09-14T23:34:29.460Z,18.40
2018-09-14T23:36:58.029Z,18.40
2018-09-14T23:39:26.268Z,18.40
2018-09-14T23:41:54.803Z,18.40
2018-09-14T23:44:22.999Z,18.40
2018-09-14T23:46:51.250Z,18.40
2018-09-14T23:49:19.576Z,18.50
2018-09-14T23:51:47.871Z,18.40
2018-09-14T23:54:16.073Z,18.40
2018-09-14T23:56:44.629Z,18.40
2018-09-14T23:59:13.100Z,18.40
